Time;durP1;ratioP1;P1;durP2;ratioP2;P2;SDS_P1;SDS_P2;PMS_P1;PMS_P2;Temp;Humidity;BMP_temperature;BMP_pressure;BME280_temperature;BME280_humidity;BME280_pressure;Samples;Min_cycle;Max_cycle;Signal;HPM_P1;HPM_P2
2022/12/27 00:01:54;;;;;;;0.57;0.57;;;;;;;3.70;100.00;100300.84;5050629;28;20302;-62
2022/12/27 00:04:21;;;;;;;0.60;0.60;;;;;;;3.57;100.00;100283.78;5051403;28;20196;-62
2022/12/27 00:06:48;;;;;;;0.60;0.60;;;;;;;3.67;100.00;100290.69;5052154;28;20243;-62
2022/12/27 00:09:15;;;;;;;0.60;0.60;;;;;;;3.66;100.00;100292.34;5052440;28;20295;-62
2022/12/27 00:11:42;;;;;;;0.70;0.70;;;;;;;3.67;100.00;100290.69;5052195;28;20697;-62
2022/12/27 00:14:11;;;;;;;0.60;0.60;;;;;;;3.67;100.00;100293.22;5051995;28;20193;-62
2022/12/27 00:16:38;;;;;;;1.13;1.10;;;;;;;3.53;100.00;100271.91;5052084;28;20227;-62
2022/12/27 00:19:06;;;;;;;0.57;0.57;;;;;;;3.41;100.00;100262.47;5052170;28;20570;-62
2022/12/27 00:21:33;;;;;;;0.80;0.80;;;;;;;3.51;100.00;100293.84;5052417;28;20197;-62
2022/12/27 00:24:01;;;;;;;0.80;0.80;;;;;;;3.49;100.00;100293.81;5052176;28;20663;-62
2022/12/27 00:26:29;;;;;;;0.67;0.67;;;;;;;3.48;100.00;100292.16;5051917;28;20680;-62
2022/12/27 00:28:57;;;;;;;0.80;0.80;;;;;;;3.38;100.00;100267.50;5051614;28;20196;-62
2022/12/27 00:31:26;;;;;;;0.60;0.60;;;;;;;3.50;100.00;100282.88;5051304;28;20200;-62
2022/12/27 00:33:55;;;;;;;0.60;0.60;;;;;;;3.52;100.00;100286.25;5051614;28;20201;-61
2022/12/27 00:36:24;;;;;;;0.60;0.60;;;;;;;3.54;100.00;100283.75;5051597;28;20724;-62
2022/12/27 00:38:51;;;;;;;0.50;0.50;;;;;;;3.55;100.00;100280.41;5051880;28;20200;-62
2022/12/27 00:41:18;;;;;;;1.13;1.13;;;;;;;3.55;100.00;100276.19;5051909;28;20283;-62
2022/12/27 00:43:45;;;;;;;0.60;0.60;;;;;;;3.38;100.00;100236.25;5051168;28;20215;-62
2022/12/27 00:46:12;;;;;;;0.50;0.50;;;;;;;3.58;100.00;100266.06;5051797;28;20778;-62
2022/12/27 00:48:41;;;;;;;0.60;0.60;;;;;;;3.54;100.00;100266.00;5051040;28;20274;-62
2022/12/27 00:51:10;;;;;;;0.60;0.60;;;;;;;3.56;100.00;100264.34;5051149;28;20208;-62
2022/12/27 00:53:37;;;;;;;0.50;0.50;;;;;;;3.54;100.00;100269.41;5051514;28;20278;-62
2022/12/27 00:56:06;;;;;;;0.50;0.50;;;;;;;3.48;100.00;100263.41;5051500;28;20200;-62
2022/12/27 00:58:33;;;;;;;0.60;0.60;;;;;;;3.43;100.00;100258.28;5050919;28;20195;-62
2022/12/27 01:01:06;;;;;;;0.73;0.73;;;;;;;3.47;100.00;100252.41;5051312;28;20207;-62
2022/12/27 01:03:33;;;;;;;0.70;0.70;;;;;;;3.43;100.00;100254.88;5051417;28;20205;-61
2022/12/27 01:06:05;;;;;;;0.60;0.60;;;;;;;3.43;100.00;100254.88;5051409;28;20211;-62
2022/12/27 01:08:32;;;;;;;0.50;0.50;;;;;;;3.33;100.00;100278.44;5050563;28;20220;-61
2022/12/27 01:10:59;;;;;;;0.60;0.60;;;;;;;3.34;100.00;100277.56;5050440;28;20204;-61
2022/12/27 01:13:26;;;;;;;0.70;0.70;;;;;;;3.33;100.00;100269.13;5050911;28;20205;-61
2022/12/27 01:15:52;;;;;;;2.37;1.10;;;;;;;3.32;100.00;100271.66;5051122;28;20208;-61
2022/12/27 01:18:19;;;;;;;0.60;0.60;;;;;;;3.33;100.00;100258.16;5049940;28;20201;-61
2022/12/27 01:20:46;;;;;;;0.70;0.70;;;;;;;3.33;100.00;100248.84;5051080;28;20568;-61
2022/12/27 01:23:14;;;;;;;0.70;0.70;;;;;;;3.33;100.00;100241.25;5050898;28;20603;-61
2022/12/27 01:25:41;;;;;;;0.60;0.60;;;;;;;3.26;100.00;100236.09;5050921;28;20197;-61
2022/12/27 01:28:08;;;;;;;0.60;0.60;;;;;;;3.25;100.00;100239.47;5050351;28;20209;-61
2022/12/27 01:30:35;;;;;;;0.60;0.60;;;;;;;3.29;100.00;100231.94;5050621;28;20204;-61
2022/12/27 01:33:01;;;;;;;0.60;0.60;;;;;;;3.26;100.00;100236.09;5050300;28;20207;-61
2022/12/27 01:35:29;;;;;;;0.80;0.80;;;;;;;3.26;100.00;100231.03;5050224;28;20200;-61
2022/12/27 01:37:55;;;;;;;0.63;0.63;;;;;;;3.26;100.00;100233.56;5050054;28;20288;-61
2022/12/27 01:40:25;;;;;;;0.90;0.90;;;;;;;3.27;100.00;100223.44;5050841;28;20193;-61
2022/12/27 01:42:51;;;;;;;0.60;0.60;;;;;;;3.23;100.00;100229.31;5049824;28;20217;-61
2022/12/27 01:45:18;;;;;;;0.70;0.70;;;;;;;3.17;100.00;100207.28;5050571;28;20201;-61
2022/12/27 01:47:56;;;;;;;0.60;0.60;;;;;;;3.25;100.00;100219.19;5050191;28;20605;-61
2022/12/27 01:50:28;;;;;;;0.50;0.50;;;;;;;3.24;100.00;100225.06;5050473;28;20196;-61
2022/12/27 01:53:04;;;;;;;0.53;0.53;;;;;;;3.08;100.00;100207.16;5050569;28;20197;-60
2022/12/27 01:55:38;;;;;;;0.70;0.70;;;;;;;3.18;100.00;100221.66;5050458;28;20203;-61
2022/12/27 01:58:10;;;;;;;5.97;1.63;;;;;;;3.10;100.00;100225.75;5050322;28;20196;-61
2022/12/27 02:00:38;;;;;;;1.30;1.30;;;;;;;3.11;100.00;100224.94;5050432;28;20758;-61
2022/12/27 02:03:06;;;;;;;0.63;0.63;;;;;;;2.95;100.00;100200.22;5050098;28;20232;-61
2022/12/27 02:05:33;;;;;;;4.20;1.50;;;;;;;3.15;100.00;100224.16;5050549;28;20251;-61
2022/12/27 02:08:21;;;;;;;1.27;1.23;;;;;;;3.17;100.00;100227.53;5049203;28;20216;-61
2022/12/27 02:10:51;;;;;;;0.70;0.70;;;;;;;3.15;100.00;100229.22;5049883;28;20246;-61
2022/12/27 02:13:19;;;;;;;1.07;1.07;;;;;;;3.11;100.00;100235.06;5050305;28;20262;-61
2022/12/27 02:15:45;;;;;;;0.60;0.60;;;;;;;3.11;100.00;100219.00;5050503;28;20197;-62
2022/12/27 02:18:13;;;;;;;1.37;1.37;;;;;;;3.11;100.00;100222.41;5049578;28;20306;-61
2022/12/27 02:21:01;;;;;;;0.50;0.50;;;;;;;3.00;100.00;100233.22;5049878;28;20262;-61
2022/12/27 02:24:03;;;;;;;0.57;0.57;;;;;;;2.94;100.00;100226.38;5050223;28;20196;-61
2022/12/27 02:26:51;;;;;;;1.27;1.17;;;;;;;2.93;100.00;100232.28;5048841;28;20250;-61
2022/12/27 02:29:46;;;;;;;0.60;0.60;;;;;;;2.84;100.00;100232.19;5050605;28;20209;-61
2022/12/27 02:32:19;;;;;;;0.60;0.60;;;;;;;2.75;100.00;100211.75;5054021;28;20223;-61
2022/12/27 02:34:56;;;;;;;0.50;0.50;;;;;;;2.82;100.00;100210.16;5054413;28;20635;-61
2022/12/27 02:37:27;;;;;;;0.60;0.60;;;;;;;2.71;100.00;100202.44;5054030;28;20274;-61
2022/12/27 02:39:56;;;;;;;0.57;0.57;;;;;;;2.76;100.00;100216.00;5054090;28;20196;-61
2022/12/27 02:53:53;;;;;;;0.70;0.70;;;;;;;2.62;100.00;100204.81;5053051;28;20259;-61
2022/12/27 02:59:31;;;;;;;0.50;0.50;;;;;;;2.60;100.00;100211.56;5053618;28;20204;-61
2022/12/27 03:05:15;;;;;;;0.70;0.70;;;;;;;2.61;100.00;100203.16;4992014;28;20287;-61
2022/12/27 03:07:48;;;;;;;0.50;0.50;;;;;;;2.58;100.00;100208.16;5042104;28;20589;-61
2022/12/27 03:16:19;;;;;;;0.70;0.70;;;;;;;2.70;100.00;100210.00;5053605;28;20561;-61
2022/12/27 03:19:10;;;;;;;0.60;0.60;;;;;;;2.70;100.00;100210.88;5052457;28;20195;-61
2022/12/27 03:27:17;;;;;;;0.63;0.63;;;;;;;2.76;100.00;100185.63;5053201;28;20192;-61
2022/12/27 03:35:28;;;;;;;2.83;1.53;;;;;;;2.73;100.00;100188.13;5053086;28;20204;-61
2022/12/27 03:38:02;;;;;;;0.67;0.67;;;;;;;2.73;100.00;100187.25;5052107;28;20192;-61
2022/12/27 03:40:37;;;;;;;0.60;0.60;;;;;;;2.75;100.00;100176.31;5052707;28;20259;-61
2022/12/27 03:43:11;;;;;;;0.60;0.60;;;;;;;2.71;100.00;100184.72;5052499;28;20208;-61
2022/12/27 03:48:50;;;;;;;0.63;0.63;;;;;;;2.69;100.00;100182.97;5052542;28;20232;-61
2022/12/27 03:51:21;;;;;;;0.70;0.70;;;;;;;2.67;100.00;100192.25;5052793;28;20756;-61
2022/12/27 03:53:52;;;;;;;0.60;0.60;;;;;;;2.69;100.00;100191.44;5052148;28;20204;-62
2022/12/27 03:56:19;;;;;;;0.70;0.70;;;;;;;2.66;100.00;100196.44;5052675;28;20672;-62
2022/12/27 03:58:46;;;;;;;0.60;0.60;;;;;;;2.67;100.00;100198.16;5051110;28;20201;-61
2022/12/27 04:01:13;;;;;;;0.93;0.93;;;;;;;2.66;100.00;100198.97;5052535;28;20589;-61
2022/12/27 04:03:40;;;;;;;0.50;0.50;;;;;;;2.65;100.00;100194.75;5052269;28;20211;-61
2022/12/27 04:06:07;;;;;;;0.50;0.50;;;;;;;2.65;100.00;100189.69;5051952;28;20262;-61
2022/12/27 04:35:57;;;;;;;0.50;0.50;;;;;;;2.57;100.00;100196.31;5052036;28;20262;-62
2022/12/27 04:38:23;;;;;;;0.60;0.60;;;;;;;2.58;100.00;100198.03;5049868;28;20255;-62
2022/12/27 04:57:28;;;;;;;2.13;2.13;;;;;;;2.31;100.00;100205.19;5044716;28;20200;-62
2022/12/27 05:02:40;;;;;;;2.37;2.17;;;;;;;2.33;100.00;100206.91;5051338;28;20231;-61
2022/12/27 05:05:09;;;;;;;1.20;1.20;;;;;;;2.31;100.00;100207.72;5050993;28;20645;-61
2022/12/27 05:15:53;;;;;;;1.00;1.00;;;;;;;2.19;100.00;100217.66;5049862;28;20799;-62
2022/12/27 05:18:20;;;;;;;0.80;0.80;;;;;;;2.23;100.00;100211.84;5047502;28;20738;-62
2022/12/27 05:20:47;;;;;;;1.00;1.00;;;;;;;2.16;100.00;100202.44;5049199;28;20204;-61
2022/12/27 05:25:58;;;;;;;2.07;2.07;;;;;;;2.18;100.00;100209.22;5050423;28;20212;-61
2022/12/27 05:28:26;;;;;;;0.70;0.70;;;;;;;2.19;100.00;100207.53;5050110;28;20251;-62
2022/12/27 05:30:53;;;;;;;0.70;0.70;;;;;;;2.19;100.00;100212.59;5050098;28;20212;-62
2022/12/27 05:33:20;;;;;;;2.60;2.40;;;;;;;2.18;100.00;100213.41;5050682;28;20601;-61
2022/12/27 05:35:47;;;;;;;0.60;0.60;;;;;;;2.21;100.00;100216.00;5050727;28;20193;-62
2022/12/27 05:38:13;;;;;;;0.70;0.70;;;;;;;2.22;100.00;100212.66;5050628;28;20250;-62
2022/12/27 05:40:40;;;;;;;0.73;0.73;;;;;;;2.13;100.00;100214.19;5050350;28;20208;-62
2022/12/27 05:43:07;;;;;;;0.70;0.70;;;;;;;2.11;100.00;100215.84;5050717;28;20205;-62
2022/12/27 05:45:35;;;;;;;0.60;0.60;;;;;;;2.09;100.00;100225.09;5049174;28;20697;-62
2022/12/27 05:48:02;;;;;;;0.60;0.60;;;;;;;2.07;100.00;100218.28;5047984;28;20562;-62
2022/12/27 05:50:29;;;;;;;0.60;0.60;;;;;;;2.03;100.00;100222.47;5050518;28;20211;-61
2022/12/27 05:52:56;;;;;;;0.60;0.60;;;;;;;2.03;100.00;100217.41;5050223;28;20246;-62
2022/12/27 05:55:22;;;;;;;0.60;0.60;;;;;;;1.88;100.00;100206.16;5049262;28;20208;-61
2022/12/27 05:57:49;;;;;;;0.70;0.70;;;;;;;1.96;100.00;100222.34;5049840;28;20197;-62
2022/12/27 06:00:16;;;;;;;1.37;1.37;;;;;;;1.97;100.00;100227.41;5050717;28;20205;-62
2022/12/27 06:02:45;;;;;;;0.80;0.80;;;;;;;1.94;100.00;100224.81;5049454;28;20231;-61
2022/12/27 06:05:11;;;;;;;0.77;0.77;;;;;;;1.95;100.00;100213.03;5048073;28;20611;-62
2022/12/27 06:07:39;;;;;;;0.60;0.60;;;;;;;2.00;100.00;100216.50;5049820;28;20694;-62
2022/12/27 06:10:07;;;;;;;0.53;0.53;;;;;;;2.02;100.00;100210.66;5050377;28;20622;-62
2022/12/27 06:12:34;;;;;;;0.90;0.90;;;;;;;2.05;100.00;100220.81;5050542;28;20196;-61
2022/12/27 06:15:01;;;;;;;0.60;0.60;;;;;;;2.00;100.00;100217.34;5050150;28;20200;-62
2022/12/27 06:17:28;;;;;;;0.67;0.67;;;;;;;1.96;100.00;100214.75;5048676;28;20201;-62
2022/12/27 06:19:56;;;;;;;0.97;0.97;;;;;;;1.95;100.00;100224.00;5048696;28;20211;-62
2022/12/27 06:22:23;;;;;;;0.63;0.63;;;;;;;1.98;100.00;100229.09;5048661;28;20201;-62
2022/12/27 06:24:50;;;;;;;0.60;0.60;;;;;;;2.01;100.00;100229.16;5043203;28;20200;-62
2022/12/27 06:27:17;;;;;;;0.70;0.70;;;;;;;2.05;100.00;100230.06;5045839;28;20204;-61
2022/12/27 06:29:43;;;;;;;0.67;0.67;;;;;;;2.10;100.00;100238.59;5045404;28;20221;-61
2022/12/27 06:32:10;;;;;;;1.00;1.00;;;;;;;2.11;100.00;100230.16;5045984;28;20719;-61
2022/12/27 06:34:37;;;;;;;0.63;0.63;;;;;;;2.10;100.00;100229.31;5046704;28;20212;-61
2022/12/27 06:37:05;;;;;;;0.50;0.50;;;;;;;2.02;100.00;100228.34;5044110;28;20197;-61
2022/12/27 06:39:32;;;;;;;0.67;0.67;;;;;;;2.06;100.00;100222.53;5047868;28;20204;-62
2022/12/27 06:41:59;;;;;;;0.60;0.60;;;;;;;2.07;100.00;100219.16;5044978;28;20197;-62
2022/12/27 06:44:25;;;;;;;0.70;0.70;;;;;;;2.10;100.00;100216.66;5048547;28;20224;-62
2022/12/27 06:46:52;;;;;;;0.70;0.70;;;;;;;2.12;100.00;100226.81;5047978;28;20657;-62
2022/12/27 06:49:19;;;;;;;0.63;0.63;;;;;;;2.17;100.00;100221.81;5047365;28;20602;-62
2022/12/27 06:51:47;;;;;;;0.60;0.60;;;;;;;2.17;100.00;100226.88;5048467;28;20205;-62
2022/12/27 06:54:15;;;;;;;0.77;0.77;;;;;;;2.22;100.00;100227.81;5047431;28;20216;-62
2022/12/27 06:56:42;;;;;;;0.70;0.70;;;;;;;2.23;100.00;100224.47;5047766;28;20251;-62
2022/12/27 06:59:09;;;;;;;0.60;0.60;;;;;;;2.28;100.00;100220.34;5047885;28;20219;-62
2022/12/27 07:01:36;;;;;;;0.87;0.87;;;;;;;2.30;100.00;100221.19;5048490;28;20228;-62
2022/12/27 07:04:02;;;;;;;1.37;1.37;;;;;;;2.27;100.00;100214.41;5046922;28;20630;-62
2022/12/27 07:06:31;;;;;;;0.60;0.60;;;;;;;2.26;100.00;100216.94;5047793;28;20197;-62
2022/12/27 07:08:59;;;;;;;0.70;0.70;;;;;;;2.30;100.00;100209.41;5047561;28;20228;-62
2022/12/27 07:11:28;;;;;;;0.67;0.67;;;;;;;2.40;100.00;100202.81;5045804;28;20212;-62
2022/12/27 07:13:55;;;;;;;0.70;0.70;;;;;;;2.49;100.00;100193.69;5048484;28;20200;-63
2022/12/27 07:16:24;;;;;;;0.60;0.60;;;;;;;2.57;100.00;100191.25;5048278;28;20204;-62
2022/12/27 07:18:52;;;;;;;0.60;0.60;;;;;;;2.60;100.00;100201.44;5051650;28;20197;-62
2022/12/27 07:21:21;;;;;;;0.80;0.80;;;;;;;2.54;100.00;100188.69;5051099;28;20300;-62
2022/12/27 07:23:48;;;;;;;1.33;1.33;;;;;;;2.57;100.00;100181.16;5050810;28;20204;-62
2022/12/27 07:26:17;;;;;;;0.60;0.60;;;;;;;2.63;100.00;100212.44;5051419;28;20347;-62
2022/12/27 07:28:45;;;;;;;0.80;0.80;;;;;;;2.63;100.00;100206.53;5051141;28;20232;-62
2022/12/27 07:31:15;;;;;;;0.80;0.80;;;;;;;2.73;100.00;100188.13;5050922;28;20227;-62
2022/12/27 07:33:42;;;;;;;0.60;0.60;;;;;;;2.70;100.00;100172.91;5051129;28;20254;-62
2022/12/27 07:36:12;;;;;;;0.60;0.60;;;;;;;2.81;100.00;100171.34;5050999;28;20737;-62
2022/12/27 07:38:39;;;;;;;0.50;0.50;;;;;;;2.89;100.00;100186.63;5050608;28;20279;-62
2022/12/27 07:41:06;;;;;;;0.63;0.63;;;;;;;2.91;100.00;100188.34;5051418;28;20207;-63
2022/12/27 07:43:34;;;;;;;0.60;0.60;;;;;;;2.97;100.00;100188.44;5051288;28;20722;-62
2022/12/27 07:46:07;;;;;;;0.60;0.60;;;;;;;3.04;100.00;100184.28;5050871;28;20208;-63
2022/12/27 07:48:35;;;;;;;0.57;0.57;;;;;;;3.13;100.00;100185.25;5050803;28;20220;-62
2022/12/27 07:51:02;;;;;;;0.60;0.60;;;;;;;3.21;100.00;100184.50;5050974;28;20197;-63
2022/12/27 07:53:29;;;;;;;0.50;0.50;;;;;;;3.23;100.00;100188.78;5050783;28;20209;-63
2022/12/27 07:55:56;;;;;;;0.60;0.60;;;;;;;3.28;100.00;100194.75;5051602;28;20653;-63
2022/12/27 07:58:22;;;;;;;0.60;0.60;;;;;;;3.38;100.00;100193.16;5052082;28;20608;-63
2022/12/27 08:00:51;;;;;;;0.80;0.80;;;;;;;3.43;100.00;100194.91;5051699;28;20749;-63
2022/12/27 08:03:19;;;;;;;0.70;0.70;;;;;;;3.55;100.00;100196.75;5050149;28;20726;-64
2022/12/27 08:05:48;;;;;;;0.60;0.60;;;;;;;3.65;100.00;100206.16;5051208;28;20200;-64
2022/12/27 08:08:16;;;;;;;0.60;0.60;;;;;;;3.76;100.00;100203.69;5050835;28;20197;-63
2022/12/27 08:10:43;;;;;;;0.50;0.50;;;;;;;3.87;100.00;100195.38;5051047;28;20208;-64
2022/12/27 08:13:10;;;;;;;0.63;0.63;;;;;;;4.00;100.00;100186.19;5049310;28;20200;-63
2022/12/27 08:15:38;;;;;;;0.60;0.60;;;;;;;4.06;100.00;100197.25;5050586;28;20208;-64
2022/12/27 08:18:05;;;;;;;0.70;0.70;;;;;;;4.15;100.00;100194.78;5050557;28;20205;-63
2022/12/27 08:20:34;;;;;;;0.70;0.70;;;;;;;4.30;100.00;100193.22;5050948;28;20193;-63
2022/12/27 08:23:01;;;;;;;0.60;0.60;;;;;;;4.43;100.00;100190.75;5051315;28;20623;-63
2022/12/27 08:25:29;;;;;;;0.97;0.97;;;;;;;4.53;100.00;100192.50;5050646;28;20203;-63
2022/12/27 08:28:03;;;;;;;0.80;0.80;;;;;;;4.58;100.00;100165.47;5049184;28;20208;-63
2022/12/27 08:30:30;;;;;;;0.57;0.57;;;;;;;4.79;100.00;100182.50;5048705;28;20220;-63
2022/12/27 08:32:57;;;;;;;1.10;1.10;;;;;;;4.88;100.00;100174.94;5051670;28;20250;-63
2022/12/27 08:35:24;;;;;;;0.60;0.60;;;;;;;5.04;100.00;100176.72;5051066;28;20205;-63
2022/12/27 08:37:52;;;;;;;0.60;0.60;;;;;;;5.15;100.00;100180.16;5050186;28;20204;-64
2022/12/27 08:40:19;;;;;;;0.70;0.70;;;;;;;5.23;100.00;100175.94;5050157;28;20216;-64
2022/12/27 08:42:47;;;;;;;0.60;0.60;;;;;;;5.37;100.00;100170.06;5051163;28;20246;-63
2022/12/27 08:45:14;;;;;;;0.60;0.60;;;;;;;5.55;100.00;100159.94;5050229;28;20677;-64
2022/12/27 08:47:41;;;;;;;0.63;0.63;;;;;;;5.68;100.00;100161.69;5049668;28;20600;-64
2022/12/27 08:50:08;;;;;;;0.57;0.57;;;;;;;5.75;100.00;100163.38;5049601;28;20664;-64
2022/12/27 08:52:35;;;;;;;0.60;0.60;;;;;;;5.91;100.00;100160.03;5042768;28;20201;-64
2022/12/27 08:55:04;;;;;;;1.00;1.00;;;;;;;6.04;100.00;100146.44;5048573;28;20205;-64
2022/12/27 08:57:31;;;;;;;0.40;0.40;;;;;;;6.22;100.00;100151.56;5042316;28;20585;-63
2022/12/27 08:59:58;;;;;;;0.77;0.77;;;;;;;6.38;100.00;100154.94;5048448;28;20621;-64
2022/12/27 09:02:24;;;;;;;0.50;0.50;;;;;;;6.47;100.00;100148.97;5046981;28;20257;-64
2022/12/27 09:04:51;;;;;;;2.77;2.67;;;;;;;6.60;100.00;100148.09;5047855;28;20562;-64
2022/12/27 09:07:18;;;;;;;0.80;0.80;;;;;;;6.75;100.00;100150.63;5049578;28;20266;-64
2022/12/27 09:09:44;;;;;;;1.67;1.67;;;;;;;6.94;100.00;100136.97;5047477;28;20220;-64
2022/12/27 09:12:13;;;;;;;0.50;0.50;;;;;;;7.07;100.00;100135.19;5046851;28;20212;-63
2022/12/27 09:14:39;;;;;;;0.60;0.60;;;;;;;7.22;100.00;100141.06;5048307;28;20266;-63
2022/12/27 09:17:08;;;;;;;0.70;0.70;;;;;;;7.29;100.00;100137.66;5049587;28;20212;-63
2022/12/27 09:19:35;;;;;;;2.17;1.17;;;;;;;7.39;100.00;100136.75;5048375;28;20588;-68
2022/12/27 09:22:01;;;;;;;0.63;0.63;;;;;;;7.59;100.00;100123.03;5048576;28;20572;-62
2022/12/27 09:24:28;;;;;;;0.60;0.60;;;;;;;7.70;100.00;100103.34;5047893;28;20710;-62
2022/12/27 09:26:55;;;;;;;0.70;0.70;;;;;;;7.81;100.00;100110.09;5047946;28;20205;-63
2022/12/27 09:29:23;;;;;;;0.60;0.60;;;;;;;7.86;100.00;100110.03;5045294;28;20224;-62
2022/12/27 09:31:50;;;;;;;0.80;0.80;;;;;;;8.03;100.00;100112.47;5046567;28;20201;-62
2022/12/27 09:34:17;;;;;;;0.80;0.80;;;;;;;8.17;100.00;100101.28;5049108;28;20917;-62
2022/12/27 09:36:44;;;;;;;0.40;0.40;;;;;;;8.27;100.00;100097.75;5044947;28;20224;-62
2022/12/27 09:39:12;;;;;;;0.53;0.53;;;;;;;8.41;100.00;100095.94;5045444;28;20215;-62
2022/12/27 09:41:48;;;;;;;0.70;0.70;;;;;;;8.51;100.00;100091.59;5046211;28;20227;-63
2022/12/27 09:44:19;;;;;;;0.60;0.60;;;;;;;8.62;100.00;100076.16;5047012;28;20212;-62
2022/12/27 09:46:52;;;;;;;0.93;0.93;;;;;;;8.74;100.00;100078.56;5046474;28;20204;-62
2022/12/27 09:49:27;;;;;;;0.50;0.50;;;;;;;8.85;100.00;100076.72;5045424;28;20297;-62
2022/12/27 09:51:57;;;;;;;0.60;0.60;;;;;;;9.03;100.00;100073.91;5046740;28;20663;-63
2022/12/27 09:54:29;;;;;;;0.57;0.57;;;;;;;9.18;100.00;100066.03;5047486;28;20212;-63
2022/12/27 09:56:58;;;;;;;0.40;0.40;;;;;;;9.29;100.00;100069.28;5047366;28;20196;-63
2022/12/27 09:59:30;;;;;;;0.70;0.70;;;;;;;9.42;100.00;100075.94;5047959;28;20203;-63
2022/12/27 10:01:59;;;;;;;0.97;0.93;;;;;;;9.60;100.00;100066.25;5045578;28;20225;-62
2022/12/27 10:04:26;;;;;;;0.40;0.40;;;;;;;9.75;100.00;100063.47;5045342;28;20204;-63
2022/12/27 10:07:08;;;;;;;0.60;0.60;;;;;;;9.94;100.00;100060.59;5047592;28;20207;-63
2022/12/27 10:09:55;;;;;;;0.70;0.70;;;;;;;10.12;100.00;100059.41;5044383;28;20239;-63
2022/12/27 10:12:38;;;;;;;0.80;0.80;;;;;;;10.39;99.52;100061.50;5046060;28;20589;-63
2022/12/27 10:15:18;;;;;;;0.80;0.80;;;;;;;10.58;100.00;100053.44;5048278;28;20209;-62
2022/12/27 10:18:00;;;;;;;0.50;0.50;;;;;;;10.81;100.00;100051.28;5048696;28;20200;-62
2022/12/27 10:20:35;;;;;;;0.63;0.63;;;;;;;10.91;100.00;100042.50;5048026;28;20200;-62
2022/12/27 10:23:06;;;;;;;0.50;0.50;;;;;;;10.97;100.00;100027.84;5045632;28;20200;-63
2022/12/27 10:25:35;;;;;;;0.40;0.40;;;;;;;11.00;100.00;100016.66;5046112;28;20208;-62
2022/12/27 10:28:13;;;;;;;0.60;0.60;;;;;;;11.04;100.00;100019.13;5043841;28;20569;-63
2022/12/27 10:30:40;;;;;;;0.40;0.40;;;;;;;11.16;100.00;100015.44;5042380;28;20224;-62
2022/12/27 10:33:16;;;;;;;0.80;0.80;;;;;;;11.46;100.00;100022.44;5049143;28;20201;-63
2022/12/27 10:35:42;;;;;;;0.40;0.40;;;;;;;11.66;100.00;100021.09;5046864;28;20201;-62
2022/12/27 10:38:10;;;;;;;0.40;0.40;;;;;;;11.86;100.00;100022.31;5041167;28;20201;-63
2022/12/27 10:40:43;;;;;;;0.73;0.73;;;;;;;11.86;100.00;100018.91;5047129;28;20674;-63
2022/12/27 10:43:18;;;;;;;0.60;0.60;;;;;;;12.07;100.00;100001.22;5044656;28;20205;-63
2022/12/27 10:45:45;;;;;;;0.40;0.40;;;;;;;12.34;98.00;100003.94;5043275;28;20214;-62
2022/12/27 10:48:16;;;;;;;0.50;0.50;;;;;;;12.61;95.22;100009.13;5047260;28;20201;-63
2022/12/27 10:50:50;;;;;;;0.30;0.30;;;;;;;12.73;92.62;100004.53;5046682;28;20224;-63
2022/12/27 10:53:33;;;;;;;0.50;0.50;;;;;;;13.05;90.20;100002.66;5051695;28;20588;-63
2022/12/27 10:56:25;;;;;;;0.50;0.50;;;;;;;13.33;88.50;99994.94;5051056;28;20205;-63
2022/12/27 10:58:53;;;;;;;0.40;0.40;;;;;;;13.64;85.12;99998.22;5047215;28;20208;-62
2022/12/27 11:01:24;;;;;;;0.50;0.50;;;;;;;13.94;83.38;99990.34;5049683;28;20213;-63
2022/12/27 11:04:08;;;;;;;0.60;0.60;;;;;;;14.15;81.64;99992.19;5050969;28;20566;-63
2022/12/27 11:06:35;;;;;;;0.50;0.50;;;;;;;14.54;79.50;99984.78;5050570;28;20201;-63
2022/12/27 11:09:28;;;;;;;0.60;0.60;;;;;;;14.69;78.74;99979.03;5050216;28;20198;-63
2022/12/27 11:12:16;;;;;;;0.60;0.60;;;;;;;14.83;78.07;99975.94;5047595;28;20283;-62
2022/12/27 11:14:55;;;;;;;0.40;0.40;;;;;;;15.07;75.81;99980.16;5047618;28;20212;-63
2022/12/27 11:17:24;;;;;;;0.37;0.37;;;;;;;15.22;75.83;99976.94;5051117;28;20207;-63
2022/12/27 11:19:52;;;;;;;0.40;0.40;;;;;;;15.44;75.23;99975.22;5050789;28;20208;-63
2022/12/27 11:22:19;;;;;;;0.60;0.60;;;;;;;15.49;73.27;99970.72;5046925;28;20658;-63
2022/12/27 11:24:49;;;;;;;0.50;0.50;;;;;;;15.42;74.81;99964.06;5048832;28;20205;-63
2022/12/27 11:27:22;;;;;;;0.50;0.50;;;;;;;15.53;74.49;99963.69;5050110;28;20211;-63
2022/12/27 11:29:50;;;;;;;0.50;0.50;;;;;;;15.53;73.58;99949.00;5049243;28;20226;-62
2022/12/27 11:32:18;;;;;;;0.50;0.50;;;;;;;15.72;74.62;99960.25;5049435;28;20261;-63
2022/12/27 11:34:47;;;;;;;0.50;0.50;;;;;;;15.85;73.41;99949.41;5049828;28;20699;-63
2022/12/27 11:37:19;;;;;;;0.60;0.60;;;;;;;15.92;73.61;99951.66;5048992;28;20304;-63
2022/12/27 11:39:49;;;;;;;0.60;0.60;;;;;;;15.98;73.57;99955.72;5049610;28;20204;-63
2022/12/27 11:42:22;;;;;;;0.53;0.53;;;;;;;16.01;72.84;99955.59;5050005;28;20211;-63
2022/12/27 11:44:59;;;;;;;0.40;0.40;;;;;;;16.00;73.59;99948.72;5048296;28;20252;-63
2022/12/27 11:47:35;;;;;;;0.40;0.40;;;;;;;16.03;74.16;99948.59;5044746;28;20206;-63
2022/12/27 11:50:19;;;;;;;0.50;0.50;;;;;;;16.12;73.29;99951.59;5043584;28;20219;-63
2022/12/27 11:53:05;;;;;;;0.47;0.47;;;;;;;16.20;74.63;99956.47;5043371;28;20273;-63
2022/12/27 11:55:52;;;;;;;0.43;0.43;;;;;;;16.06;74.70;99948.44;5046448;28;20688;-63
2022/12/27 11:58:47;;;;;;;0.47;0.47;;;;;;;16.00;74.39;99953.91;5048217;28;20557;-63
2022/12/27 12:01:36;;;;;;;0.50;0.50;;;;;;;16.15;75.18;99954.09;5045616;28;20205;-63
2022/12/27 12:04:23;;;;;;;1.30;1.30;;;;;;;16.23;72.96;99951.16;5044072;28;20277;-63
2022/12/27 12:07:03;;;;;;;0.50;0.50;;;;;;;16.40;73.61;99953.81;5045909;28;20200;-63
2022/12/27 12:10:07;;;;;;;0.43;0.43;;;;;;;16.48;72.55;99956.91;5047660;28;20778;-63
2022/12/27 12:13:05;;;;;;;0.50;0.50;;;;;;;16.49;72.70;99953.41;5042022;28;20208;-63
2022/12/27 12:16:07;;;;;;;0.43;0.43;;;;;;;16.62;73.05;99953.72;5046305;28;20211;-63
2022/12/27 12:19:10;;;;;;;0.43;0.43;;;;;;;16.61;73.59;99952.88;5039595;28;20664;-63
2022/12/27 12:21:47;;;;;;;0.30;0.30;;;;;;;16.73;73.08;99952.31;5043546;28;20208;-63
2022/12/27 12:24:42;;;;;;;0.50;0.50;;;;;;;16.63;73.11;99951.06;5045051;28;20213;-63
2022/12/27 12:27:26;;;;;;;0.60;0.60;;;;;;;16.72;73.18;99945.47;5042218;28;20266;-63
2022/12/27 12:30:34;;;;;;;0.43;0.43;;;;;;;16.66;73.84;99956.09;5042133;28;20658;-63
2022/12/27 12:33:32;;;;;;;0.40;0.40;;;;;;;16.69;73.97;99953.38;5041661;28;20209;-63
2022/12/27 12:36:19;;;;;;;0.50;0.50;;;;;;;16.60;72.45;99919.31;5044754;28;20200;-63
2022/12/27 12:38:50;;;;;;;0.40;0.40;;;;;;;16.83;72.48;99962.25;5048294;28;20265;-63
2022/12/27 12:41:44;;;;;;;0.63;0.63;;;;;;;16.88;70.74;99965.44;5051872;28;20592;-63
2022/12/27 12:44:50;;;;;;;0.50;0.50;;;;;;;17.01;71.26;99967.41;5044495;28;20208;-63
2022/12/27 12:47:39;;;;;;;0.40;0.40;;;;;;;17.19;70.56;99952.72;4980548;28;20199;-63
2022/12/27 12:50:28;;;;;;;0.50;0.50;;;;;;;17.23;70.74;99956.84;5040784;28;20229;-63
2022/12/27 12:53:13;;;;;;;0.47;0.47;;;;;;;17.23;70.33;99956.84;5042352;28;20200;-63
2022/12/27 12:55:53;;;;;;;0.50;0.50;;;;;;;17.26;71.52;99951.50;5042412;28;20677;-63
2022/12/27 12:58:35;;;;;;;0.40;0.40;;;;;;;17.38;71.67;99944.91;5039311;28;20208;-63
2022/12/27 13:01:21;;;;;;;0.50;0.50;;;;;;;17.48;72.25;99946.94;5040882;28;20216;-64
2022/12/27 13:04:01;;;;;;;0.43;0.43;;;;;;;17.44;71.44;99950.63;5038274;28;20248;-63
2022/12/27 13:06:49;;;;;;;0.40;0.40;;;;;;;17.42;71.90;99947.25;5036163;28;20205;-63
2022/12/27 13:09:28;;;;;;;0.50;0.50;;;;;;;17.45;71.43;99952.28;5035289;28;20256;-63
2022/12/27 13:12:04;;;;;;;0.43;0.43;;;;;;;17.51;70.73;99951.97;5042648;28;20593;-63
2022/12/27 13:14:47;;;;;;;0.53;0.53;;;;;;;17.48;70.70;99952.13;5045455;28;20685;-63
2022/12/27 13:17:22;;;;;;;0.40;0.40;;;;;;;17.45;70.47;99962.66;5042003;28;20228;-63
2022/12/27 13:20:09;;;;;;;0.50;0.50;;;;;;;17.52;69.98;99960.59;5040986;28;20658;-64
2022/12/27 13:22:53;;;;;;;0.43;0.43;;;;;;;17.59;68.38;99970.63;5044682;28;20204;-64
2022/12/27 13:25:28;;;;;;;0.50;0.50;;;;;;;17.53;69.60;99970.91;5050858;28;20588;-63